Time;durP1;ratioP1;P1;durP2;ratioP2;P2;SDS_P1;SDS_P2;PMS_P1;PMS_P2;Temp;Humidity;BMP_temperature;BMP_pressure;BME280_temperature;BME280_humidity;BME280_pressure;Samples;Min_cycle;Max_cycle;Signal;HPM_P1;HPM_P2
2021/08/02 00:01:52;;;;;;;7.53;4.10;;;;;;;11.15;100.00;93651.09;5092807;28;20661;-79
2021/08/02 00:04:23;;;;;;;7.90;4.13;;;;;;;11.16;100.00;93650.06;5092866;28;20197;-79
2021/08/02 00:06:52;;;;;;;11.70;4.30;;;;;;;11.22;100.00;93642.19;5092901;28;20278;-78
2021/08/02 00:09:25;;;;;;;11.63;4.53;;;;;;;11.21;100.00;93645.03;5092773;28;20225;-78
2021/08/02 00:11:55;;;;;;;11.90;4.77;;;;;;;11.19;100.00;93645.25;5092635;28;20221;-78
2021/08/02 00:14:24;;;;;;;11.30;4.67;;;;;;;11.22;100.00;93644.00;5092672;28;20206;-78
2021/08/02 00:16:52;;;;;;;9.20;4.57;;;;;;;11.20;100.00;93646.03;5092834;28;20198;-78
2021/08/02 00:19:19;;;;;;;15.37;4.83;;;;;;;11.16;100.00;93639.59;5092604;28;20209;-79
2021/08/02 00:21:46;;;;;;;9.57;4.33;;;;;;;11.19;100.00;93647.03;5092735;28;20206;-80
2021/08/02 00:24:14;;;;;;;9.83;4.77;;;;;;;11.26;100.00;93650.44;5092760;28;20206;-78
2021/08/02 00:26:41;;;;;;;7.40;4.80;;;;;;;11.29;100.00;93650.84;5092548;28;20199;-81
2021/08/02 00:29:08;;;;;;;10.40;4.40;;;;;;;11.32;100.00;93644.38;5092523;28;20681;-81
2021/08/02 00:31:37;;;;;;;12.60;4.50;;;;;;;11.34;100.00;93652.81;5092729;28;20308;-79
2021/08/02 00:34:04;;;;;;;5.47;3.80;;;;;;;11.32;100.00;93652.22;5092520;28;20202;-78
2021/08/02 00:36:34;;;;;;;9.03;3.23;;;;;;;11.30;100.00;93652.41;5092370;28;20230;-79
2021/08/02 00:39:05;;;;;;;8.53;4.27;;;;;;;11.36;100.00;93649.97;5096158;28;20205;-78
2021/08/02 00:42:10;;;;;;;8.13;4.43;;;;;;;11.41;100.00;93656.19;5096563;28;20205;-79
2021/08/02 00:45:14;;;;;;;12.27;4.63;;;;;;;11.46;100.00;93656.38;5067445;28;20202;-79
2021/08/02 00:47:48;;;;;;;8.50;3.60;;;;;;;11.51;100.00;93655.75;5096315;28;20202;-78
2021/08/02 00:50:17;;;;;;;8.73;4.43;;;;;;;11.53;100.00;93650.31;5096030;28;20229;-78
2021/08/02 00:52:50;;;;;;;8.00;4.13;;;;;;;11.54;100.00;93659.75;5096076;28;20737;-79
2021/08/02 00:55:17;;;;;;;10.23;4.40;;;;;;;11.55;100.00;93651.69;5096218;28;20209;-79
2021/08/02 00:57:44;;;;;;;6.43;3.93;;;;;;;11.61;100.00;93657.94;5095890;28;20201;-78
2021/08/02 01:00:14;;;;;;;13.97;4.40;;;;;;;11.61;100.00;93658.72;5096245;28;20528;-78
2021/08/02 01:02:45;;;;;;;6.87;3.57;;;;;;;11.64;100.00;93657.47;5096270;28;20198;-78
2021/08/02 01:05:12;;;;;;;7.93;4.33;;;;;;;11.69;100.00;93664.69;5095852;28;20206;-78
2021/08/02 01:07:43;;;;;;;7.33;3.80;;;;;;;11.62;100.00;93659.50;5096043;28;20209;-77
2021/08/02 01:10:12;;;;;;;9.67;3.50;;;;;;;11.53;100.00;93661.56;5095175;28;20233;-77
2021/08/02 01:12:41;;;;;;;9.30;3.50;;;;;;;11.51;100.00;93657.56;5095676;28;20756;-77
2021/08/02 01:15:08;;;;;;;5.80;3.30;;;;;;;11.50;100.00;93658.59;5095713;28;20205;-76
2021/08/02 01:17:35;;;;;;;12.43;3.63;;;;;;;11.50;100.00;93658.59;5095633;28;20205;-77
2021/08/02 01:20:04;;;;;;;8.13;3.40;;;;;;;11.47;100.00;93657.16;5095605;28;20561;-78
2021/08/02 01:22:33;;;;;;;9.30;3.43;;;;;;;11.45;100.00;93662.59;5095575;28;20209;-77
2021/08/02 01:25:21;;;;;;;11.23;3.40;;;;;;;11.50;100.00;93656.75;5095364;28;20288;-79
2021/08/02 01:27:48;;;;;;;10.93;3.43;;;;;;;11.50;100.00;93658.59;5095620;28;20205;-77
2021/08/02 01:30:21;;;;;;;7.23;3.70;;;;;;;11.53;100.00;93655.56;5095449;28;20206;-78
2021/08/02 01:32:49;;;;;;;10.77;4.10;;;;;;;11.52;100.00;93659.16;5095377;28;20199;-77
2021/08/02 01:35:16;;;;;;;8.60;3.83;;;;;;;11.49;100.00;93655.19;5095204;28;20234;-76
2021/08/02 01:37:46;;;;;;;11.07;4.20;;;;;;;11.50;100.00;93654.16;5095500;28;20202;-77
2021/08/02 01:40:13;;;;;;;9.07;4.10;;;;;;;11.52;100.00;93659.16;5074944;28;20256;-77
2021/08/02 01:42:40;;;;;;;6.90;3.47;;;;;;;11.52;100.00;93654.72;5075076;28;20332;-77
2021/08/02 01:45:08;;;;;;;8.57;3.50;;;;;;;11.48;100.00;93659.56;5075035;28;20225;-76
2021/08/02 01:47:41;;;;;;;7.83;4.33;;;;;;;11.48;100.00;93659.56;5080611;28;20202;-76
2021/08/02 01:50:20;;;;;;;7.50;3.97;;;;;;;11.48;100.00;93656.97;5073687;28;20195;-77
2021/08/02 01:52:56;;;;;;;7.60;4.40;;;;;;;11.48;100.00;93659.56;5074941;28;20203;-77
2021/08/02 01:55:24;;;;;;;8.77;4.47;;;;;;;11.44;100.00;93655.78;5074867;28;20198;-78
2021/08/02 01:57:55;;;;;;;7.70;4.07;;;;;;;11.47;100.00;93654.56;5074746;28;20199;-77
2021/08/02 02:00:22;;;;;;;6.30;4.10;;;;;;;11.48;100.00;93650.94;5074638;28;20202;-77
2021/08/02 02:02:58;;;;;;;8.57;4.10;;;;;;;11.45;100.00;93653.97;5074704;28;20202;-76
2021/08/02 02:05:29;;;;;;;7.37;4.10;;;;;;;11.43;100.00;93654.19;5074630;28;20399;-78
2021/08/02 02:08:01;;;;;;;9.93;4.43;;;;;;;11.40;100.00;93654.59;5074645;28;20215;-78
2021/08/02 02:10:30;;;;;;;7.03;4.17;;;;;;;11.39;100.00;93650.38;5074355;28;20205;-79
2021/08/02 02:12:58;;;;;;;18.97;5.00;;;;;;;11.41;100.00;93650.97;5073965;28;20241;-79
2021/08/02 02:15:27;;;;;;;8.20;3.87;;;;;;;11.39;100.00;93653.00;5074151;28;20585;-78
2021/08/02 02:17:54;;;;;;;8.97;3.83;;;;;;;11.32;100.00;93644.38;5074516;28;20206;-78
2021/08/02 02:20:21;;;;;;;12.90;4.00;;;;;;;11.23;100.00;93648.25;5074303;28;20199;-77
2021/08/02 02:22:47;;;;;;;7.77;4.43;;;;;;;11.18;100.00;93642.84;5073950;28;20245;-77
2021/08/02 02:25:16;;;;;;;11.57;4.23;;;;;;;11.13;100.00;93651.28;5073937;28;20198;-78
2021/08/02 02:27:44;;;;;;;5.53;3.60;;;;;;;11.11;100.00;93642.88;5074086;28;20209;-77
2021/08/02 02:30:11;;;;;;;7.60;4.20;;;;;;;11.09;100.00;93650.09;5073835;28;20570;-77
2021/08/02 02:32:39;;;;;;;9.07;3.77;;;;;;;11.04;100.00;93652.53;5073938;28;20226;-78
2021/08/02 02:35:08;;;;;;;7.10;3.87;;;;;;;11.01;100.00;93653.75;5073667;28;20581;-78
2021/08/02 02:37:35;;;;;;;6.80;4.37;;;;;;;10.98;100.00;93654.16;5073742;28;20675;-77
2021/08/02 02:40:03;;;;;;;10.30;4.50;;;;;;;10.97;100.00;93649.13;5073603;28;20199;-77
2021/08/02 02:42:32;;;;;;;12.30;3.93;;;;;;;11.00;100.00;93662.59;5073706;28;20213;-77
2021/08/02 02:45:00;;;;;;;9.30;4.47;;;;;;;11.02;100.00;93655.34;5073767;28;20198;-78
2021/08/02 02:47:27;;;;;;;11.93;4.60;;;;;;;11.04;100.00;93657.75;5073809;28;20205;-77
2021/08/02 02:49:55;;;;;;;5.53;3.67;;;;;;;11.05;100.00;93661.97;5075890;28;20566;-78
2021/08/02 02:52:22;;;;;;;6.97;4.27;;;;;;;11.05;100.00;93660.16;5074095;28;20223;-77
2021/08/02 02:54:51;;;;;;;11.07;5.70;;;;;;;11.07;100.00;93663.38;5072970;28;20441;-78
2021/08/02 02:57:17;;;;;;;5.90;3.93;;;;;;;11.08;100.00;93664.97;5073615;28;20207;-77
2021/08/02 02:59:46;;;;;;;12.90;3.87;;;;;;;11.04;100.00;93661.19;5072682;28;20662;-78
2021/08/02 03:02:13;;;;;;;5.60;3.70;;;;;;;11.09;100.00;93655.31;5073226;28;20210;-77
2021/08/02 03:04:44;;;;;;;8.97;3.87;;;;;;;11.06;100.00;93667.00;5073045;28;20202;-77
2021/08/02 03:07:12;;;;;;;6.83;3.60;;;;;;;11.07;100.00;93670.41;5073229;28;20205;-79
2021/08/02 03:09:41;;;;;;;8.97;3.47;;;;;;;11.04;100.00;93671.63;5073268;28;20230;-78
2021/08/02 03:12:08;;;;;;;6.57;3.30;;;;;;;11.04;100.00;93666.41;5073104;28;20563;-77
2021/08/02 03:14:36;;;;;;;15.17;3.50;;;;;;;11.02;100.00;93668.41;5073344;28;20561;-77
2021/08/02 03:17:07;;;;;;;5.77;3.53;;;;;;;11.03;100.00;93672.63;5092426;28;20202;-78
2021/08/02 03:19:34;;;;;;;9.20;4.63;;;;;;;10.98;100.00;93664.59;5093546;28;20202;-77
2021/08/02 03:22:09;;;;;;;10.50;4.10;;;;;;;10.96;100.00;93668.41;5093238;28;20213;-77
2021/08/02 03:24:42;;;;;;;8.83;3.73;;;;;;;10.91;100.00;93669.84;5093026;28;20201;-79
2021/08/02 03:27:18;;;;;;;6.13;3.90;;;;;;;10.91;100.00;93679.50;5093246;28;20798;-77
2021/08/02 03:29:47;;;;;;;6.83;3.53;;;;;;;10.90;100.00;93672.66;5093185;28;20198;-77
2021/08/02 03:32:18;;;;;;;7.70;3.63;;;;;;;10.92;100.00;93675.88;5092771;28;20226;-80
2021/08/02 03:34:48;;;;;;;13.80;3.90;;;;;;;10.93;100.00;93677.47;5093216;28;20581;-78
2021/08/02 03:37:17;;;;;;;6.60;4.00;;;;;;;10.92;100.00;93674.06;5093378;28;20201;-77
2021/08/02 03:39:45;;;;;;;8.63;3.83;;;;;;;10.95;100.00;93670.22;5093104;28;20198;-77
2021/08/02 03:42:13;;;;;;;6.43;3.60;;;;;;;10.91;100.00;93675.06;5093042;28;20201;-77
2021/08/02 03:44:40;;;;;;;8.10;3.83;;;;;;;10.92;100.00;93673.25;5092723;28;20209;-78
2021/08/02 03:47:07;;;;;;;6.27;3.53;;;;;;;10.93;100.00;93682.69;5092968;28;20288;-76
2021/08/02 03:49:35;;;;;;;10.27;3.70;;;;;;;10.89;100.00;93677.09;5092890;28;20661;-77
2021/08/02 03:52:02;;;;;;;6.17;3.73;;;;;;;10.89;100.00;93681.50;5092924;28;20230;-78
2021/08/02 03:54:30;;;;;;;8.97;3.63;;;;;;;10.91;100.00;93684.72;5093001;28;20202;-78
2021/08/02 03:57:00;;;;;;;5.33;3.40;;;;;;;10.91;100.00;93692.56;5092813;28;20202;-77
2021/08/02 03:59:26;;;;;;;9.10;3.73;;;;;;;10.90;100.00;93685.72;5092801;28;20675;-78
2021/08/02 04:01:53;;;;;;;7.30;3.60;;;;;;;10.88;100.00;93687.75;5092840;28;20206;-78
2021/08/02 04:04:20;;;;;;;7.50;3.30;;;;;;;10.87;100.00;93694.75;5092834;28;20237;-77
2021/08/02 04:06:48;;;;;;;5.30;3.50;;;;;;;10.84;100.00;93695.19;5092802;28;20289;-77
2021/08/02 04:09:14;;;;;;;7.83;3.37;;;;;;;10.81;100.00;93695.59;5092758;28;20206;-77
2021/08/02 04:11:42;;;;;;;11.57;3.93;;;;;;;10.80;100.00;93701.00;5094372;28;20228;-79
2021/08/02 04:14:09;;;;;;;11.00;3.50;;;;;;;10.83;100.00;93703.22;5097004;28;20198;-77
2021/08/02 04:16:37;;;;;;;7.43;3.47;;;;;;;10.86;100.00;93708.03;5096884;28;20201;-77
2021/08/02 04:19:04;;;;;;;6.27;3.70;;;;;;;10.87;100.00;93702.59;5096723;28;20208;-77
2021/08/02 04:21:31;;;;;;;7.53;3.50;;;;;;;10.91;100.00;93703.00;5096655;28;20209;-77
2021/08/02 04:23:59;;;;;;;7.50;3.53;;;;;;;10.92;100.00;93710.63;5096566;28;20208;-77
2021/08/02 04:26:25;;;;;;;6.70;3.30;;;;;;;10.90;100.00;93714.44;5096699;28;20198;-77
2021/08/02 04:28:56;;;;;;;5.40;3.30;;;;;;;10.89;100.00;93713.66;5096659;28;20225;-76
2021/08/02 04:31:23;;;;;;;7.60;3.40;;;;;;;10.93;100.00;93720.06;5096659;28;20232;-76
2021/08/02 04:33:50;;;;;;;6.87;3.50;;;;;;;10.98;100.00;93724.69;5096408;28;20198;-77
2021/08/02 04:36:16;;;;;;;7.43;3.40;;;;;;;10.99;100.00;93723.69;5095969;28;20369;-77
2021/08/02 04:38:43;;;;;;;11.97;4.20;;;;;;;11.03;100.00;93724.88;5095914;28;20680;-77
2021/08/02 04:41:10;;;;;;;12.70;3.43;;;;;;;11.03;100.00;93714.41;5096500;28;20198;-78
2021/08/02 04:43:37;;;;;;;9.77;4.60;;;;;;;11.10;100.00;93719.63;5096004;28;20214;-77
2021/08/02 04:46:04;;;;;;;22.00;4.00;;;;;;;11.12;100.00;93725.44;5096125;28;20671;-78
2021/08/02 04:48:30;;;;;;;9.07;3.37;;;;;;;11.15;100.00;93727.66;5096252;28;20263;-77
2021/08/02 04:50:57;;;;;;;9.13;3.27;;;;;;;11.15;100.00;93722.44;5096108;28;20206;-77
2021/08/02 04:53:23;;;;;;;7.27;2.67;;;;;;;11.15;100.00;93721.63;5095853;28;20226;-77
2021/08/02 04:55:50;;;;;;;7.43;3.30;;;;;;;11.19;100.00;93728.88;5096168;28;20224;-77
2021/08/02 04:58:17;;;;;;;14.65;4.22;;;;;;;11.21;100.00;93726.06;5095143;28;20442;-77
2021/08/02 05:00:44;;;;;;;8.27;3.10;;;;;;;11.26;100.00;93718.41;5096059;28;20205;-78
2021/08/02 05:03:10;;;;;;;6.60;2.80;;;;;;;11.25;100.00;93712.34;5095850;28;20206;-77
2021/08/02 05:05:37;;;;;;;6.90;3.03;;;;;;;11.33;100.00;93724.41;5095677;28;20209;-77
2021/08/02 05:08:04;;;;;;;4.22;2.78;;;;;;;11.42;100.00;93723.16;5095392;28;20853;-78
2021/08/02 05:10:32;;;;;;;6.23;2.97;;;;;;;11.50;100.00;93734.41;5095919;28;20202;-78
2021/08/02 05:12:58;;;;;;;7.30;2.80;;;;;;;11.48;100.00;93732.78;5095536;28;20230;-78
2021/08/02 05:15:26;;;;;;;3.20;2.37;;;;;;;11.51;100.00;93733.38;5095766;28;20221;-79
2021/08/02 05:17:53;;;;;;;5.00;3.10;;;;;;;11.64;100.00;93734.13;5095707;28;20201;-77
2021/08/02 05:20:19;;;;;;;6.17;2.80;;;;;;;11.73;100.00;93729.47;5095040;28;20190;-77
2021/08/02 05:22:46;;;;;;;5.83;2.80;;;;;;;11.89;100.00;93737.84;5094723;28;20206;-77
2021/08/02 05:25:13;;;;;;;4.37;2.40;;;;;;;11.81;100.00;93736.28;5095657;28;20209;-77
2021/08/02 05:27:40;;;;;;;8.50;2.50;;;;;;;11.84;100.00;93733.25;5095570;28;20592;-78
2021/08/02 05:30:07;;;;;;;6.73;2.80;;;;;;;12.01;100.00;93738.81;5095460;28;20205;-77
2021/08/02 05:32:35;;;;;;;3.93;2.50;;;;;;;12.03;100.00;93734.97;5095391;28;20226;-77
2021/08/02 05:35:01;;;;;;;6.67;2.50;;;;;;;12.33;100.00;93737.00;5094982;28;20198;-78
2021/08/02 05:37:28;;;;;;;4.50;2.10;;;;;;;12.38;100.00;93736.38;5095466;28;20228;-77
2021/08/02 05:39:54;;;;;;;4.65;2.20;;;;;;;12.44;100.00;93743.38;5095378;28;20225;-78
2021/08/02 05:42:20;;;;;;;2.38;1.83;;;;;;;12.56;100.00;93733.03;5095328;28;20198;-78
2021/08/02 05:44:47;;;;;;;4.03;2.10;;;;;;;12.63;100.00;93739.00;5095221;28;20198;-77
2021/08/02 05:47:14;;;;;;;5.40;2.00;;;;;;;12.90;100.00;93741.41;5095125;28;20679;-78
2021/08/02 05:49:42;;;;;;;6.15;2.08;;;;;;;13.01;100.00;93750.38;5095000;28;20198;-77
2021/08/02 05:52:08;;;;;;;3.50;1.83;;;;;;;13.25;100.00;93746.09;5094932;28;20222;-77
2021/08/02 05:54:35;;;;;;;5.60;1.75;;;;;;;13.41;100.00;93742.16;5095120;28;20213;-77
2021/08/02 05:57:02;;;;;;;3.45;1.90;;;;;;;13.23;100.00;93756.81;5094914;28;20198;-77
2021/08/02 05:59:28;;;;;;;11.55;1.90;;;;;;;13.40;100.00;93748.41;5094747;28;20676;-78
2021/08/02 06:01:58;;;;;;;2.80;2.00;;;;;;;13.40;100.00;93758.88;5094628;28;20206;-79
2021/08/02 06:04:24;;;;;;;4.57;1.90;;;;;;;13.63;100.00;93759.03;5094846;28;20240;-78
2021/08/02 06:06:53;;;;;;;5.28;1.60;;;;;;;13.73;100.00;93758.53;5094808;28;20205;-80
2021/08/02 06:09:20;;;;;;;4.00;1.50;;;;;;;13.78;100.00;93755.25;5094748;28;20241;-80
2021/08/02 06:11:47;;;;;;;5.43;1.65;;;;;;;13.81;100.00;93754.81;5094634;28;20229;-78
2021/08/02 06:14:13;;;;;;;3.15;1.58;;;;;;;13.85;100.00;93762.00;5094530;28;20668;-77
2021/08/02 06:16:40;;;;;;;5.03;1.52;;;;;;;14.04;100.00;93757.53;5094314;28;20194;-77
2021/08/02 06:19:06;;;;;;;5.45;1.60;;;;;;;14.27;100.00;93765.72;5094563;28;20202;-78
2021/08/02 06:21:32;;;;;;;2.72;1.35;;;;;;;14.32;100.00;93761.41;5094575;28;20206;-78
2021/08/02 06:24:01;;;;;;;3.20;1.42;;;;;;;14.53;100.00;93767.16;5094205;28;20665;-78
2021/08/02 06:26:27;;;;;;;6.07;1.40;;;;;;;14.58;100.00;93764.66;5094401;28;20202;-78
2021/08/02 06:28:53;;;;;;;4.65;1.40;;;;;;;14.41;100.00;93770.56;5094166;28;20282;-78
2021/08/02 06:31:20;;;;;;;2.00;1.30;;;;;;;14.44;100.00;93771.94;5094146;28;20198;-77
2021/08/02 06:33:46;;;;;;;1.65;1.40;;;;;;;14.79;100.00;93772.03;5094270;28;20233;-77
2021/08/02 06:36:13;;;;;;;2.13;1.33;;;;;;;14.80;100.00;93768.41;5093824;28;20230;-77
2021/08/02 06:38:39;;;;;;;1.77;1.38;;;;;;;14.98;100.00;93778.00;5095542;28;20198;-78
2021/08/02 06:41:07;;;;;;;7.45;1.58;;;;;;;15.12;100.00;93769.88;5096253;28;20212;-78
2021/08/02 06:43:33;;;;;;;2.75;1.20;;;;;;;15.38;100.00;93767.84;5095576;28;20227;-78
2021/08/02 06:46:00;;;;;;;5.47;1.30;;;;;;;15.20;100.00;93771.38;5093978;28;20198;-78
2021/08/02 06:48:27;;;;;;;4.45;1.00;;;;;;;15.37;100.00;93772.31;5093949;28;20692;-78
2021/08/02 06:50:53;;;;;;;3.67;1.13;;;;;;;15.45;100.00;93769.31;5094057;28;20282;-78
2021/08/02 06:53:20;;;;;;;3.45;1.35;;;;;;;15.70;100.00;93774.31;5093617;28;20692;-78
2021/08/02 06:55:47;;;;;;;1.77;0.93;;;;;;;16.08;100.00;93769.56;5093806;28;20202;-79
2021/08/02 06:58:16;;;;;;;4.10;1.13;;;;;;;16.20;100.00;93780.84;5093673;28;20198;-78
2021/08/02 07:00:42;;;;;;;3.28;1.00;;;;;;;16.44;100.00;93783.41;5093888;28;20202;-80
2021/08/02 07:03:09;;;;;;;1.80;0.90;;;;;;;16.88;100.00;93781.00;5093424;28;20668;-77
2021/08/02 07:05:36;;;;;;;1.77;0.88;;;;;;;17.14;100.00;93784.03;5093876;28;20244;-79
2021/08/02 07:08:02;;;;;;;1.88;1.02;;;;;;;16.93;100.00;93778.44;5094106;28;20204;-80
2021/08/02 07:10:29;;;;;;;1.23;0.90;;;;;;;16.53;100.00;93779.31;5093700;28;20233;-77
2021/08/02 07:12:55;;;;;;;2.35;1.15;;;;;;;16.65;100.00;93782.72;5093363;28;20712;-79
2021/08/02 07:15:23;;;;;;;5.18;1.00;;;;;;;16.95;100.00;93786.94;5093581;28;20209;-79
2021/08/02 07:17:49;;;;;;;2.92;1.00;;;;;;;16.85;100.00;93786.75;5093056;28;20198;-81
2021/08/02 07:20:16;;;;;;;2.30;1.00;;;;;;;16.98;100.00;93791.69;5093500;28;20202;-81
2021/08/02 07:22:42;;;;;;;1.92;0.98;;;;;;;16.97;100.00;93794.56;5093655;28;20205;-80
2021/08/02 07:25:09;;;;;;;3.45;1.13;;;;;;;17.02;100.00;93799.97;5093211;28;20448;-81
2021/08/02 07:27:38;;;;;;;1.73;0.90;;;;;;;17.11;100.00;93789.81;5093578;28;20221;-82
2021/08/02 07:30:06;;;;;;;2.42;1.00;;;;;;;17.47;100.00;93793.75;5092941;28;20759;-82
2021/08/02 07:32:33;;;;;;;4.75;1.10;;;;;;;17.91;100.00;93795.69;5093137;28;20680;-81
2021/08/02 07:35:00;;;;;;;5.78;0.98;;;;;;;17.73;99.40;93802.81;5092884;28;20549;-80
2021/08/02 07:37:26;;;;;;;3.55;1.05;;;;;;;17.47;95.54;93798.22;5093054;28;20205;-80
2021/08/02 07:39:53;;;;;;;1.65;1.10;;;;;;;17.90;97.83;93796.72;5090279;28;20237;-78
2021/08/02 07:42:19;;;;;;;2.22;1.00;;;;;;;17.44;94.42;93799.53;5093074;28;20198;-82
2021/08/02 07:44:46;;;;;;;3.53;1.13;;;;;;;17.16;99.61;93797.78;5090510;28;20288;-79
2021/08/02 07:47:12;;;;;;;1.90;0.93;;;;;;;17.54;100.00;93798.88;5088224;28;20202;-80
2021/08/02 07:49:40;;;;;;;4.78;1.15;;;;;;;17.70;100.00;93798.03;5091497;28;20198;-81
2021/08/02 07:52:07;;;;;;;3.95;1.10;;;;;;;18.04;95.78;93792.69;5092095;28;20194;-80
2021/08/02 07:54:33;;;;;;;3.38;0.85;;;;;;;17.62;99.64;93793.19;5090508;28;20198;-81
2021/08/02 07:57:00;;;;;;;1.42;0.85;;;;;;;17.96;88.63;93794.97;5092620;28;20205;-79
2021/08/02 07:59:26;;;;;;;3.25;0.93;;;;;;;17.83;91.90;93802.16;5093082;28;20202;-79
2021/08/02 08:01:53;;;;;;;1.52;1.00;;;;;;;17.56;95.75;93797.56;5093057;28;20202;-80
2021/08/02 08:04:19;;;;;;;2.55;0.90;;;;;;;18.02;98.90;93792.13;5092922;28;20210;-79
2021/08/02 08:06:47;;;;;;;3.00;1.10;;;;;;;17.35;93.73;93795.69;5092857;28;20205;-80
2021/08/02 08:09:13;;;;;;;1.80;0.98;;;;;;;17.38;97.57;93801.28;5092677;28;20213;-79
2021/08/02 08:11:40;;;;;;;2.30;1.13;;;;;;;17.44;96.85;93798.72;5093087;28;20202;-79
2021/08/02 08:14:06;;;;;;;8.00;1.60;;;;;;;17.87;100.00;93791.91;5092809;28;20230;-80
2021/08/02 08:16:32;;;;;;;2.05;0.93;;;;;;;18.34;99.46;93802.00;5092947;28;20201;-80
2021/08/02 08:18:59;;;;;;;2.38;0.93;;;;;;;18.86;95.58;93790.88;5092695;28;20198;-78
2021/08/02 08:21:26;;;;;;;1.70;0.90;;;;;;;19.36;86.60;93796.84;5092629;28;20649;-78
2021/08/02 08:23:55;;;;;;;3.75;1.00;;;;;;;18.89;90.94;93796.75;5092514;28;20653;-80
2021/08/02 08:26:21;;;;;;;1.45;0.90;;;;;;;18.55;93.90;93792.44;5092765;28;20250;-80
2021/08/02 08:28:48;;;;;;;2.90;1.30;;;;;;;18.63;87.87;93793.81;5092703;28;20289;-80
2021/08/02 08:31:15;;;;;;;2.47;1.10;;;;;;;18.70;93.72;93794.41;5092526;28;20213;-78
2021/08/02 08:33:43;;;;;;;2.50;1.02;;;;;;;19.02;88.92;93797.13;5092469;28;20234;-79
2021/08/02 08:36:11;;;;;;;4.53;1.20;;;;;;;19.27;91.10;93792.25;5092319;28;20726;-80
2021/08/02 08:38:38;;;;;;;4.68;1.00;;;;;;;19.59;84.18;93800.97;5092966;28;20281;-80
2021/08/02 08:41:06;;;;;;;3.53;1.00;;;;;;;20.06;83.47;93794.06;5092756;28;20208;-80
2021/08/02 08:43:32;;;;;;;3.72;0.90;;;;;;;19.16;80.56;93802.78;5092559;28;20667;-80
2021/08/02 08:45:59;;;;;;;7.88;1.10;;;;;;;19.00;79.69;93801.06;5091796;28;20205;-81
2021/08/02 08:48:26;;;;;;;1.63;1.00;;;;;;;18.76;86.51;93795.28;5092271;28;20209;-80
2021/08/02 08:50:53;;;;;;;1.42;0.98;;;;;;;18.17;86.11;93785.41;5092278;28;20195;-80
2021/08/02 08:53:22;;;;;;;2.17;0.90;;;;;;;17.98;94.61;93783.09;5092467;28;20231;-80
2021/08/02 08:55:48;;;;;;;1.25;0.93;;;;;;;18.56;87.64;93785.31;5092684;28;20198;-80
2021/08/02 08:58:16;;;;;;;1.10;0.90;;;;;;;18.55;87.69;93791.63;5093537;28;20224;-81
2021/08/02 09:00:42;;;;;;;1.45;1.00;;;;;;;19.36;86.71;93793.41;5096140;28;20194;-79
2021/08/02 09:03:10;;;;;;;2.50;0.90;;;;;;;19.49;80.62;93790.31;5095866;28;20213;-79
2021/08/02 09:05:37;;;;;;;1.63;0.80;;;;;;;19.82;79.52;93798.19;5096105;28;20202;-79
2021/08/02 09:08:05;;;;;;;6.78;1.10;;;;;;;19.68;82.12;93797.84;5096130;28;20220;-79
2021/08/02 09:10:32;;;;;;;3.47;0.93;;;;;;;20.52;79.60;93796.09;5096043;28;20198;-80
2021/08/02 09:13:00;;;;;;;2.97;1.00;;;;;;;20.50;73.26;93798.19;5095324;28;20236;-82
2021/08/02 09:15:33;;;;;;;2.70;0.88;;;;;;;20.06;76.34;93798.59;5095572;28;20272;-80
2021/08/02 09:18:00;;;;;;;1.58;0.80;;;;;;;19.57;91.08;93792.47;5095380;28;20548;-79
2021/08/02 09:20:27;;;;;;;1.65;1.00;;;;;;;19.39;80.24;93791.03;5095751;28;20202;-81
2021/08/02 09:22:54;;;;;;;3.63;0.82;;;;;;;19.55;81.25;93793.78;5095718;28;20205;-81
2021/08/02 09:45:00;;;;;;;3.60;1.10;;;;;;;19.03;78.03;93805.84;5090069;27;20778;-81
2021/08/02 09:47:29;;;;;;;2.08;1.00;;;;;;;18.53;81.32;93801.66;5090530;28;20267;-80
2021/08/02 09:49:56;;;;;;;3.65;1.00;;;;;;;18.41;83.93;93809.75;5088211;28;20232;-80
2021/08/02 09:52:23;;;;;;;3.00;1.20;;;;;;;18.57;80.29;93802.75;5088938;28;20222;-80
2021/08/02 09:54:59;;;;;;;2.58;1.30;;;;;;;18.46;81.10;93797.34;5089202;28;20205;-80
2021/08/02 09:57:27;;;;;;;3.80;1.15;;;;;;;18.42;82.12;93793.63;5089925;28;20202;-79
2021/08/02 09:59:54;;;;;;;6.70;1.20;;;;;;;19.05;81.70;93798.44;5090071;28;20679;-82
2021/08/02 10:02:22;;;;;;;1.33;1.00;;;;;;;18.93;84.00;93795.19;5090097;28;20198;-79
2021/08/02 10:04:50;;;;;;;1.90;0.98;;;;;;;18.35;86.76;93792.22;5090014;28;20202;-81
2021/08/02 10:07:17;;;;;;;6.03;1.23;;;;;;;18.27;96.21;93788.19;5089968;28;20198;-80
2021/08/02 10:09:44;;;;;;;1.77;1.02;;;;;;;18.26;89.97;93791.88;5089867;28;20202;-78
2021/08/02 10:12:10;;;;;;;3.88;1.25;;;;;;;18.03;90.90;93795.56;5089974;28;20194;-82
2021/08/02 10:14:37;;;;;;;5.05;1.95;;;;;;;17.54;93.31;93798.88;5089904;28;20209;-80
2021/08/02 10:17:09;;;;;;;2.38;0.98;;;;;;;17.49;99.51;93801.44;5089724;28;20197;-81
2021/08/02 10:19:38;;;;;;;4.25;1.17;;;;;;;16.80;100.00;93810.34;5089768;28;20198;-80
2021/08/02 10:22:06;;;;;;;1.60;1.00;;;;;;;16.08;100.00;93809.06;5089557;28;20198;-80
2021/08/02 10:24:32;;;;;;;2.28;1.35;;;;;;;15.74;100.00;93808.88;5089747;28;20210;-79
2021/08/02 10:27:02;;;;;;;3.72;1.10;;;;;;;15.38;100.00;93810.72;5089755;28;20225;-79
2021/08/02 10:29:38;;;;;;;2.83;1.55;;;;;;;15.15;100.00;93806.25;5089712;28;20260;-78
2021/08/02 10:32:05;;;;;;;9.30;1.73;;;;;;;15.30;100.00;93805.81;5089503;28;20213;-78
2021/08/02 10:34:31;;;;;;;2.50;1.33;;;;;;;15.57;100.00;93802.72;5089269;28;20230;-80
2021/08/02 10:37:00;;;;;;;5.18;1.50;;;;;;;15.81;100.00;93806.16;5089279;28;20202;-79
2021/08/02 10:39:28;;;;;;;2.97;1.30;;;;;;;16.10;100.00;93801.72;5089401;28;20630;-78
2021/08/02 10:42:05;;;;;;;2.13;1.80;;;;;;;16.56;100.00;93794.66;5089402;28;20209;-79
2021/08/02 10:44:31;;;;;;;4.03;1.20;;;;;;;16.85;100.00;93797.28;5082748;28;20280;-78
2021/08/02 10:47:01;;;;;;;1.80;1.20;;;;;;;17.23;100.00;93782.59;5075677;28;20199;-79
2021/08/02 10:49:27;;;;;;;3.00;1.50;;;;;;;17.58;100.00;93786.78;5075516;28;20688;-80
2021/08/02 10:51:55;;;;;;;3.80;1.00;;;;;;;17.86;100.00;93780.53;5075517;28;20202;-79
2021/08/02 10:54:23;;;;;;;2.92;1.20;;;;;;;17.87;100.00;93778.72;5075705;28;20226;-79
2021/08/02 10:56:50;;;;;;;2.22;1.42;;;;;;;18.03;100.00;93775.22;5075585;28;20206;-79
2021/08/02 10:59:17;;;;;;;3.15;1.50;;;;;;;17.74;100.00;93767.44;5075468;28;20199;-78
2021/08/02 11:01:48;;;;;;;2.70;1.27;;;;;;;17.84;100.00;93769.41;5075283;28;20210;-76
2021/08/02 11:04:17;;;;;;;2.28;1.05;;;;;;;17.69;100.00;93772.66;5075644;28;20206;-77
2021/08/02 11:06:45;;;;;;;2.97;1.33;;;;;;;17.73;100.00;93760.56;5075385;28;20217;-79
2021/08/02 11:09:11;;;;;;;4.75;1.35;;;;;;;18.49;100.00;93751.91;5075356;28;20261;-81
2021/08/02 11:11:39;;;;;;;2.65;1.35;;;;;;;19.11;100.00;93757.75;5075237;28;20210;-80
2021/08/02 11:14:08;;;;;;;3.67;1.30;;;;;;;19.50;100.00;93744.25;5075101;28;20238;-80
2021/08/02 11:16:40;;;;;;;1.90;1.20;;;;;;;19.77;91.60;93744.13;5075135;28;20205;-80
2021/08/02 11:19:21;;;;;;;1.48;1.10;;;;;;;19.89;93.61;93741.28;5075236;28;20206;-80
2021/08/02 11:21:48;;;;;;;1.10;0.90;;;;;;;20.42;92.30;93733.22;5075114;28;20207;-81
2021/08/02 11:24:15;;;;;;;3.63;1.10;;;;;;;20.39;85.79;93743.56;5075008;28;20214;-80
2021/08/02 11:26:53;;;;;;;2.88;1.00;;;;;;;20.57;87.58;93732.44;5074865;28;20203;-81
2021/08/02 11:29:21;;;;;;;1.95;1.20;;;;;;;20.99;82.44;93747.34;5075155;28;20210;-79
2021/08/02 11:31:59;;;;;;;5.15;1.25;;;;;;;19.62;74.88;93752.00;5074863;28;20210;-80
2021/08/02 11:34:27;;;;;;;3.80;1.00;;;;;;;19.38;72.65;93748.94;5074935;28;20616;-79
2021/08/02 11:36:58;;;;;;;2.88;1.23;;;;;;;19.62;77.11;93740.56;5074210;28;20203;-79
2021/08/02 11:39:24;;;;;;;1.58;1.17;;;;;;;19.58;78.64;93746.41;5074596;28;20225;-79
2021/08/02 11:42:04;;;;;;;1.13;0.90;;;;;;;20.30;80.60;93736.09;5074660;28;20203;-78
2021/08/02 11:44:31;;;;;;;0.95;0.77;;;;;;;21.12;74.08;93734.59;5074437;28;20226;-77
2021/08/02 11:46:58;;;;;;;1.30;0.90;;;;;;;21.71;71.52;93736.63;5074580;28;20203;-82
2021/08/02 11:49:26;;;;;;;1.20;1.00;;;;;;;21.65;70.84;93736.91;5074552;28;20195;-80
2021/08/02 11:51:54;;;;;;;1.88;1.10;;;;;;;20.84;77.14;93731.41;5074191;28;20209;-82